createdAt,value
2022-08-17T00:00:34.618Z,20.26
2022-08-17T00:03:08.401Z,20.25
2022-08-17T00:05:42.113Z,20.10
2022-08-17T00:08:11.341Z,20.22
2022-08-17T00:10:41.253Z,20.21
2022-08-17T00:13:12.501Z,20.37
2022-08-17T00:15:40.888Z,20.36
2022-08-17T00:19:06.541Z,20.46
2022-08-17T00:20:58.264Z,20.37
2022-08-17T00:23:27.110Z,20.24
2022-08-17T00:25:56.793Z,20.16
2022-08-17T00:28:25.956Z,20.31
2022-08-17T00:30:55.215Z,20.13
2022-08-17T00:33:26.932Z,20.15
2022-08-17T00:35:56.778Z,20.16
2022-08-17T00:38:25.706Z,20.02
2022-08-17T00:40:59.650Z,20.15
2022-08-17T00:43:32.101Z,19.94
2022-08-17T00:46:02.069Z,20.20
2022-08-17T00:48:31.222Z,20.17
2022-08-17T00:51:06.721Z,20.10
2022-08-17T00:53:38.377Z,20.04
2022-08-17T00:56:10.325Z,20.00
2022-08-17T00:58:39.527Z,20.02
2022-08-17T01:01:12.514Z,19.97
2022-08-17T01:03:49.901Z,19.93
2022-08-17T01:06:19.054Z,19.87
2022-08-17T01:08:47.519Z,19.79
2022-08-17T01:11:24.771Z,19.70
2022-08-17T01:13:56.731Z,19.32
2022-08-17T01:16:27.771Z,19.38
2022-08-17T01:18:59.545Z,19.44
2022-08-17T01:21:33.861Z,19.50
2022-08-17T01:24:03.628Z,19.43
2022-08-17T01:26:34.398Z,19.60
2022-08-17T01:29:04.134Z,19.30
2022-08-17T01:31:38.523Z,19.41
2022-08-17T01:34:10.293Z,19.76
2022-08-17T01:36:40.412Z,19.81
2022-08-17T01:39:17.242Z,19.84
2022-08-17T01:41:46.690Z,19.67
2022-08-17T01:44:17.668Z,19.94
2022-08-17T01:46:45.585Z,19.79
2022-08-17T01:49:14.001Z,19.90
2022-08-17T01:51:42.063Z,19.86
2022-08-17T01:54:14.787Z,19.87
2022-08-17T01:56:47.244Z,19.82
2022-08-17T01:59:17.320Z,19.83
2022-08-17T02:01:46.699Z,19.97
2022-08-17T02:04:15.674Z,19.99
2022-08-17T02:06:47.083Z,20.01
2022-08-17T02:09:25.993Z,19.90
2022-08-17T02:11:57.778Z,19.81
2022-08-17T02:14:26.545Z,20.05
2022-08-17T02:16:56.174Z,19.99
2022-08-17T02:19:24.572Z,19.97
2022-08-17T02:21:54.956Z,19.89
2022-08-17T02:24:59.932Z,19.78
2022-08-17T02:27:15.438Z,19.81
2022-08-17T02:29:43.542Z,19.80
2022-08-17T02:32:27.148Z,19.73
2022-08-17T02:34:57.099Z,19.94
2022-08-17T02:37:25.782Z,19.70
2022-08-17T02:39:57.080Z,19.77
2022-08-17T02:42:29.612Z,19.73
2022-08-17T02:44:57.676Z,19.83
2022-08-17T02:47:25.702Z,19.88
2022-08-17T02:49:55.786Z,19.75
2022-08-17T02:52:42.881Z,19.69
2022-08-17T02:55:16.685Z,19.59
2022-08-17T02:57:45.611Z,19.36
2022-08-17T03:00:16.869Z,19.43
2022-08-17T03:02:45.907Z,19.41
2022-08-17T03:05:16.646Z,19.35
2022-08-17T03:07:44.878Z,19.35
2022-08-17T03:10:17.630Z,19.27
2022-08-17T03:12:46.837Z,19.80
2022-08-17T03:15:21.237Z,19.88
2022-08-17T03:17:52.466Z,19.91
2022-08-17T03:20:21.366Z,19.96
2022-08-17T03:22:53.462Z,19.90
2022-08-17T03:25:25.998Z,20.02
2022-08-17T03:27:55.474Z,19.97
2022-08-17T03:30:24.806Z,20.06
2022-08-17T03:32:55.782Z,20.18
2022-08-17T03:35:32.786Z,20.09
2022-08-17T03:38:02.111Z,20.06
2022-08-17T03:40:41.836Z,20.08
2022-08-17T03:43:23.036Z,20.33
2022-08-17T03:46:27.103Z,20.14
2022-08-17T03:49:15.591Z,20.44
2022-08-17T03:52:01.064Z,20.39
2022-08-17T03:54:46.321Z,20.41
2022-08-17T03:57:16.519Z,20.45
2022-08-17T03:59:45.308Z,20.57
2022-08-17T04:02:18.875Z,20.59
2022-08-17T04:04:47.112Z,20.50
2022-08-17T04:07:15.174Z,20.72
2022-08-17T04:09:43.774Z,20.71
2022-08-17T04:12:12.748Z,20.75
2022-08-17T04:14:53.740Z,20.73
2022-08-17T04:17:24.378Z,20.98
2022-08-17T04:19:53.010Z,20.82
2022-08-17T04:22:33.318Z,20.76
2022-08-17T04:25:05.972Z,20.83
2022-08-17T04:27:34.306Z,20.73
2022-08-17T04:30:04.126Z,20.62
2022-08-17T04:33:04.895Z,20.94
2022-08-17T04:35:23.755Z,20.83
2022-08-17T04:37:52.542Z,20.99
2022-08-17T04:40:40.615Z,20.98
2022-08-17T04:43:13.944Z,20.99
2022-08-17T04:45:54.871Z,20.97
2022-08-17T04:48:29.856Z,21.13
2022-08-17T04:51:07.473Z,20.90
2022-08-17T04:53:35.764Z,21.11
2022-08-17T04:56:04.267Z,20.99
2022-08-17T04:58:32.404Z,21.08
2022-08-17T05:01:02.062Z,21.30
2022-08-17T05:03:30.734Z,21.03
2022-08-17T05:05:58.880Z,21.15
2022-08-17T05:08:27.220Z,21.13
2022-08-17T05:10:55.522Z,21.15
2022-08-17T05:13:26.669Z,20.89
2022-08-17T05:15:57.554Z,21.00
2022-08-17T05:18:28.113Z,20.96
2022-08-17T05:20:58.153Z,21.23
2022-08-17T05:23:35.521Z,21.27
2022-08-17T05:26:25.589Z,21.28
2022-08-17T05:28:55.471Z,21.16
2022-08-17T05:31:29.501Z,21.23
2022-08-17T05:33:59.522Z,21.20
2022-08-17T05:36:43.622Z,21.16
2022-08-17T05:39:16.680Z,21.16
2022-08-17T05:41:47.739Z,21.19
2022-08-17T05:44:16.326Z,21.28
2022-08-17T05:46:49.840Z,21.21
2022-08-17T05:49:24.112Z,21.51
2022-08-17T05:52:14.359Z,21.45
2022-08-17T05:55:03.340Z,21.85
2022-08-17T05:57:53.113Z,22.20
2022-08-17T06:00:30.914Z,22.44
2022-08-17T06:03:23.779Z,22.66
2022-08-17T06:06:09.020Z,22.80
2022-08-17T06:08:51.501Z,23.14
2022-08-17T06:11:29.190Z,23.35
2022-08-17T06:14:14.908Z,23.64
2022-08-17T06:16:46.022Z,23.39
2022-08-17T06:19:18.293Z,23.83
2022-08-17T06:21:52.349Z,23.81
2022-08-17T06:24:28.614Z,23.59
2022-08-17T06:27:01.188Z,23.74
2022-08-17T06:29:43.062Z,23.70
2022-08-17T06:32:14.519Z,23.74
2022-08-17T06:34:45.077Z,23.64
2022-08-17T06:37:28.977Z,23.88
2022-08-17T06:40:13.719Z,23.91
2022-08-17T06:42:58.809Z,23.96
2022-08-17T06:45:38.972Z,24.00
2022-08-17T06:48:14.088Z,24.09
2022-08-17T06:50:48.897Z,23.90
2022-08-17T06:53:25.809Z,23.91
2022-08-17T06:56:00.012Z,23.98
2022-08-17T06:58:31.482Z,24.02
2022-08-17T07:01:07.488Z,24.43
2022-08-17T07:03:42.087Z,24.42
2022-08-17T07:06:15.845Z,25.01
2022-08-17T07:08:55.015Z,25.30
2022-08-17T07:11:28.945Z,25.53
2022-08-17T07:14:07.657Z,25.29
2022-08-17T07:16:41.533Z,25.38
2022-08-17T07:19:10.928Z,25.49
2022-08-17T07:21:49.324Z,25.41
2022-08-17T07:24:34.469Z,25.59
2022-08-17T07:27:09.652Z,25.62
2022-08-17T07:29:49.632Z,26.00
2022-08-17T07:32:23.414Z,25.99
2022-08-17T07:35:21.269Z,25.92
2022-08-17T07:37:53.328Z,26.16
2022-08-17T07:40:27.657Z,26.18
2022-08-17T07:43:06.004Z,25.87
2022-08-17T07:45:55.733Z,25.59
2022-08-17T07:48:27.682Z,25.69
2022-08-17T07:50:57.310Z,25.74
2022-08-17T07:53:27.553Z,26.13
2022-08-17T07:55:56.984Z,26.04
2022-08-17T07:58:26.494Z,26.37
2022-08-17T08:01:09.103Z,26.73
2022-08-17T08:03:43.967Z,26.92
2022-08-17T08:06:21.081Z,26.62
2022-08-17T08:08:54.818Z,26.34
2022-08-17T08:11:40.129Z,26.63
2022-08-17T08:14:28.561Z,27.11
2022-08-17T08:17:02.153Z,27.15
2022-08-17T08:19:31.861Z,26.97
2022-08-17T08:22:09.488Z,27.10
2022-08-17T08:24:55.458Z,27.23
2022-08-17T08:27:35.817Z,27.45
2022-08-17T08:30:12.201Z,27.92
2022-08-17T08:33:04.705Z,28.30
2022-08-17T08:35:34.543Z,28.25
2022-08-17T08:38:15.600Z,28.06
2022-08-17T08:41:03.074Z,28.28
2022-08-17T08:43:45.789Z,28.50
2022-08-17T08:46:27.990Z,29.00
2022-08-17T08:49:12.698Z,29.25
2022-08-17T08:51:53.111Z,28.93
2022-08-17T08:54:35.028Z,28.80
2022-08-17T08:57:33.695Z,28.51
2022-08-17T09:00:17.680Z,28.58
2022-08-17T09:03:04.811Z,28.31
2022-08-17T09:05:45.809Z,28.53
2022-08-17T09:08:24.640Z,28.25
2022-08-17T09:11:03.248Z,28.25
2022-08-17T09:13:41.760Z,28.29
2022-08-17T09:16:17.366Z,28.52
2022-08-17T09:19:00.093Z,29.60
2022-08-17T09:21:38.391Z,29.97
2022-08-17T09:24:24.189Z,30.43
2022-08-17T09:26:59.257Z,30.91
2022-08-17T09:29:30.517Z,31.00
2022-08-17T09:32:03.946Z,31.19
2022-08-17T09:34:36.548Z,31.46
2022-08-17T09:37:19.225Z,32.28
2022-08-17T09:39:56.751Z,32.84
2022-08-17T09:42:33.876Z,33.65
2022-08-17T09:45:17.383Z,34.01
2022-08-17T09:47:55.132Z,33.46
2022-08-17T09:51:01.624Z,34.42
2022-08-17T09:53:17.912Z,34.44
2022-08-17T09:56:01.793Z,34.46
2022-08-17T09:58:40.597Z,34.30
2022-08-17T10:01:22.739Z,35.62
2022-08-17T10:04:09.972Z,36.16
2022-08-17T10:06:50.244Z,35.86
2022-08-17T10:09:32.060Z,36.73
2022-08-17T10:12:20.598Z,37.76
2022-08-17T10:15:08.077Z,38.32
2022-08-17T10:17:49.823Z,37.98
2022-08-17T10:20:26.775Z,37.95
2022-08-17T10:23:18.539Z,37.80
2022-08-17T10:26:09.371Z,38.36
2022-08-17T10:28:41.783Z,38.61
2022-08-17T10:34:36.211Z,38.89
2022-08-17T10:37:43.475Z,39.28
2022-08-17T10:40:26.455Z,39.04
2022-08-17T10:43:00.489Z,38.80
2022-08-17T10:45:35.332Z,39.29
2022-08-17T10:48:27.166Z,38.87
2022-08-17T10:51:08.132Z,38.07
2022-08-17T10:54:01.826Z,36.10
2022-08-17T10:56:48.443Z,35.30
2022-08-17T10:59:50.619Z,34.53
2022-08-17T11:02:37.645Z,35.18
2022-08-17T11:05:29.068Z,36.03
2022-08-17T11:08:14.290Z,36.82
2022-08-17T11:11:08.093Z,36.96
2022-08-17T11:13:44.953Z,37.20
2022-08-17T11:16:39.226Z,36.83
2022-08-17T11:19:38.358Z,36.52
2022-08-17T11:22:38.983Z,36.64
2022-08-17T11:25:17.331Z,37.08
2022-08-17T11:27:53.811Z,37.42
2022-08-17T11:30:47.022Z,37.34
2022-08-17T11:33:53.896Z,37.61
2022-08-17T11:36:34.862Z,37.48
2022-08-17T11:39:06.508Z,36.98
2022-08-17T11:41:46.196Z,36.08
2022-08-17T11:44:37.984Z,35.31
2022-08-17T11:47:37.142Z,34.50
2022-08-17T11:50:48.962Z,34.57
2022-08-17T11:54:31.246Z,33.85
2022-08-17T11:56:52.017Z,33.90
2022-08-17T11:59:59.770Z,34.18
2022-08-17T12:02:47.868Z,33.91
2022-08-17T12:05:37.895Z,32.93
2022-08-17T12:08:17.845Z,32.56
2022-08-17T12:11:00.302Z,32.08
2022-08-17T12:13:37.052Z,31.88
2022-08-17T12:16:10.011Z,31.44
2022-08-17T12:18:42.211Z,31.68
2022-08-17T12:21:24.434Z,31.78
2022-08-17T12:24:00.779Z,31.33
2022-08-17T12:26:33.118Z,31.23
2022-08-17T12:29:03.794Z,30.86
2022-08-17T12:31:43.393Z,30.66
2022-08-17T12:34:17.888Z,30.32
2022-08-17T12:36:47.606Z,30.18
2022-08-17T12:39:21.628Z,30.00
2022-08-17T12:42:02.006Z,30.65
2022-08-17T12:44:33.124Z,30.67
2022-08-17T12:47:11.096Z,30.70
2022-08-17T12:49:42.481Z,30.81
2022-08-17T12:52:15.482Z,31.06
2022-08-17T12:54:52.525Z,31.22
2022-08-17T12:57:23.651Z,31.33
2022-08-17T12:59:55.705Z,31.58
2022-08-17T13:02:31.573Z,31.78
2022-08-17T13:05:02.142Z,32.05
2022-08-17T13:07:35.151Z,32.20
2022-08-17T13:10:04.576Z,32.28
2022-08-17T13:12:35.494Z,32.26
2022-08-17T13:15:04.178Z,32.32
2022-08-17T13:17:36.982Z,32.11
2022-08-17T13:20:07.183Z,32.22
2022-08-17T13:22:35.468Z,32.20
2022-08-17T13:25:08.583Z,32.03
2022-08-17T13:27:38.291Z,31.65
2022-08-17T13:30:12.423Z,31.57
2022-08-17T13:32:46.547Z,31.64
2022-08-17T13:35:48.802Z,31.80
2022-08-17T13:38:36.548Z,31.27
2022-08-17T13:41:07.615Z,31.27
2022-08-17T13:43:45.627Z,31.96
2022-08-17T13:46:22.696Z,32.72
2022-08-17T13:49:01.694Z,33.37
2022-08-17T13:51:35.770Z,33.79
2022-08-17T13:54:26.993Z,34.41
2022-08-17T13:57:01.571Z,34.91
2022-08-17T13:59:54.434Z,34.64
2022-08-17T14:02:28.335Z,34.44
2022-08-17T14:05:00.580Z,35.31
2022-08-17T14:07:33.846Z,36.00
2022-08-17T14:10:05.758Z,35.48
2022-08-17T14:12:36.242Z,34.38
2022-08-17T14:15:05.303Z,33.14
2022-08-17T14:17:38.129Z,32.16
2022-08-17T14:20:11.445Z,30.82
2022-08-17T14:22:45.489Z,30.26
2022-08-17T14:25:16.594Z,30.08
2022-08-17T14:27:52.924Z,29.60
2022-08-17T14:30:24.008Z,29.14
2022-08-17T14:32:52.963Z,28.71
2022-08-17T14:35:25.635Z,28.76
2022-08-17T14:37:54.443Z,28.65
2022-08-17T14:40:25.455Z,28.51
2022-08-17T14:42:55.829Z,28.24
2022-08-17T14:45:27.382Z,28.54
2022-08-17T14:48:02.976Z,28.67
2022-08-17T14:50:35.294Z,29.03
2022-08-17T14:53:06.495Z,29.26
2022-08-17T14:55:36.189Z,29.90
2022-08-17T14:58:05.151Z,30.42
2022-08-17T15:00:33.823Z,30.60
2022-08-17T15:03:02.253Z,31.14
2022-08-17T15:05:34.094Z,30.78
2022-08-17T15:08:04.016Z,29.96
2022-08-17T15:10:32.990Z,29.38
2022-08-17T15:13:03.257Z,29.31
2022-08-17T15:15:32.061Z,29.13
2022-08-17T15:18:01.159Z,28.83
2022-08-17T15:20:30.929Z,28.62
2022-08-17T15:23:00.609Z,28.29
2022-08-17T15:25:32.492Z,27.87
2022-08-17T15:28:01.624Z,27.71
2022-08-17T15:30:32.069Z,27.61
2022-08-17T15:33:02.182Z,27.36
2022-08-17T15:35:34.431Z,27.35
2022-08-17T15:38:11.734Z,27.49
2022-08-17T15:40:43.174Z,27.24
2022-08-17T15:43:13.998Z,27.36
2022-08-17T15:45:42.368Z,27.45
2022-08-17T15:48:10.740Z,27.35
2022-08-17T15:50:38.838Z,27.17
2022-08-17T15:53:08.256Z,27.65
2022-08-17T15:55:38.438Z,27.87
2022-08-17T15:58:07.108Z,27.80
2022-08-17T16:00:50.431Z,27.83
2022-08-17T16:03:58.385Z,27.74
2022-08-17T16:06:13.562Z,28.19
2022-08-17T16:08:44.906Z,28.43
2022-08-17T16:11:14.554Z,28.19
2022-08-17T16:13:54.530Z,27.69
2022-08-17T16:16:26.119Z,27.41
2022-08-17T16:18:58.638Z,27.04
2022-08-17T16:21:29.613Z,26.96
2022-08-17T16:24:03.657Z,26.69
2022-08-17T16:26:34.155Z,26.35
2022-08-17T16:29:07.137Z,26.36
2022-08-17T16:31:36.099Z,26.21
2022-08-17T16:34:17.482Z,26.05
2022-08-17T16:36:54.978Z,25.92
2022-08-17T16:39:27.186Z,26.00
2022-08-17T16:41:56.397Z,26.02
2022-08-17T16:44:24.872Z,25.98
2022-08-17T16:46:53.512Z,25.81
2022-08-17T16:49:35.952Z,25.87
2022-08-17T16:52:10.049Z,25.77
2022-08-17T16:54:44.324Z,25.76
2022-08-17T16:57:12.853Z,25.76
2022-08-17T16:59:48.716Z,25.74
2022-08-17T17:02:25.217Z,25.54
2022-08-17T17:04:57.675Z,25.70
2022-08-17T17:07:55.531Z,25.69
2022-08-17T17:10:29.880Z,25.67
2022-08-17T17:13:03.880Z,25.68
2022-08-17T17:15:47.427Z,25.42
2022-08-17T17:18:17.347Z,25.42
2022-08-17T17:20:52.329Z,25.54
2022-08-17T17:23:36.063Z,25.39
2022-08-17T17:26:20.617Z,25.42
2022-08-17T17:29:24.365Z,25.20
2022-08-17T17:32:03.829Z,25.21
2022-08-17T17:34:50.534Z,25.09
2022-08-17T17:37:26.493Z,25.05
2022-08-17T17:39:57.961Z,25.00
2022-08-17T17:42:31.622Z,25.21
2022-08-17T17:45:06.115Z,25.19
2022-08-17T17:47:50.680Z,25.16
2022-08-17T17:50:40.849Z,25.02
2022-08-17T17:53:35.488Z,24.98
2022-08-17T17:56:43.100Z,24.88
2022-08-17T17:59:33.493Z,24.53
2022-08-17T18:02:36.081Z,24.60
2022-08-17T18:05:14.146Z,24.42
2022-08-17T18:07:46.585Z,24.46
2022-08-17T18:10:29.568Z,24.37
2022-08-17T18:13:10.282Z,24.26
2022-08-17T18:15:51.206Z,24.16
2022-08-17T18:18:44.781Z,24.03
2022-08-17T18:21:17.062Z,23.84
2022-08-17T18:23:48.909Z,23.50
2022-08-17T18:26:37.705Z,23.48
2022-08-17T18:29:23.846Z,23.37
2022-08-17T18:32:15.304Z,23.20
2022-08-17T18:34:47.618Z,23.04
2022-08-17T18:37:33.038Z,22.90
2022-08-17T18:40:24.348Z,22.83
2022-08-17T18:43:01.084Z,22.77
2022-08-17T18:45:34.450Z,22.67
2022-08-17T18:48:04.612Z,22.48
2022-08-17T18:50:41.561Z,22.48
2022-08-17T18:53:38.649Z,22.27
2022-08-17T18:56:41.815Z,22.39
2022-08-17T18:59:23.457Z,22.25
2022-08-17T19:02:34.630Z,22.03
2022-08-17T19:05:14.623Z,22.18
2022-08-17T19:07:45.319Z,22.25
2022-08-17T19:10:23.072Z,22.33
2022-08-17T19:13:00.307Z,22.30
2022-08-17T19:15:36.033Z,22.37
2022-08-17T19:18:15.743Z,22.18
2022-08-17T19:20:52.036Z,22.14
2022-08-17T19:23:25.100Z,21.93
2022-08-17T19:25:55.841Z,21.91
2022-08-17T19:28:31.439Z,21.74
2022-08-17T19:31:10.967Z,21.64
2022-08-17T19:33:39.631Z,21.38
2022-08-17T19:36:14.418Z,21.40
2022-08-17T19:38:50.613Z,21.28
2022-08-17T19:41:24.670Z,21.15
2022-08-17T19:44:14.760Z,21.08
2022-08-17T19:46:56.276Z,20.88
2022-08-17T19:49:41.228Z,20.86
2022-08-17T19:52:31.647Z,20.78
2022-08-17T19:55:07.658Z,20.71
2022-08-17T19:57:44.953Z,20.75
2022-08-17T20:00:17.161Z,20.37
2022-08-17T20:02:55.060Z,20.52
2022-08-17T20:05:26.926Z,20.49
2022-08-17T20:08:03.524Z,20.40
2022-08-17T20:10:39.626Z,20.41
2022-08-17T20:13:18.466Z,20.39
2022-08-17T20:16:01.294Z,20.27
2022-08-17T20:18:36.682Z,20.23
2022-08-17T20:21:20.491Z,20.05
2022-08-17T20:23:54.946Z,20.09
2022-08-17T20:26:28.146Z,20.25
2022-08-17T20:29:09.327Z,20.06
2022-08-17T20:31:44.810Z,20.07
2022-08-17T20:34:37.392Z,20.00
2022-08-17T20:37:09.499Z,19.83
2022-08-17T20:39:43.158Z,19.86
2022-08-17T20:42:31.715Z,19.89
2022-08-17T20:45:05.401Z,19.84
2022-08-17T20:47:36.962Z,19.81
2022-08-17T20:50:09.373Z,19.69
2022-08-17T20:52:49.495Z,19.77
2022-08-17T20:55:53.288Z,19.75
2022-08-17T20:58:47.514Z,19.74
2022-08-17T21:01:20.287Z,19.71
2022-08-17T21:03:54.295Z,19.68
2022-08-17T21:06:24.904Z,19.63
2022-08-17T21:08:59.880Z,19.52
2022-08-17T21:12:03.993Z,19.46
2022-08-17T21:14:46.304Z,19.46
2022-08-17T21:17:34.949Z,19.48
2022-08-17T21:20:11.815Z,19.45
2022-08-17T21:22:52.915Z,19.46
2022-08-17T21:25:50.310Z,19.42
2022-08-17T21:28:34.259Z,19.41
2022-08-17T21:31:09.135Z,19.33
2022-08-17T21:33:39.346Z,19.33
2022-08-17T21:36:27.482Z,19.29
2022-08-17T21:39:08.768Z,19.28
2022-08-17T21:41:52.863Z,19.24
2022-08-17T21:44:32.116Z,19.15
2022-08-17T21:47:15.198Z,19.19
2022-08-17T21:49:43.604Z,19.04
2022-08-17T21:52:15.198Z,19.17
2022-08-17T21:54:51.390Z,19.15
2022-08-17T21:57:22.591Z,19.02
2022-08-17T21:59:56.146Z,19.11
2022-08-17T22:02:29.718Z,19.07
2022-08-17T22:05:00.075Z,19.04
2022-08-17T22:07:41.017Z,18.81
2022-08-17T22:10:30.610Z,18.77
2022-08-17T22:13:16.395Z,18.78
2022-08-17T22:15:48.878Z,18.87
2022-08-17T22:18:22.758Z,18.86
2022-08-17T22:20:54.207Z,18.68
2022-08-17T22:23:42.643Z,18.76
2022-08-17T22:26:13.986Z,18.72
2022-08-17T22:28:46.262Z,18.68
2022-08-17T22:31:17.867Z,18.52
2022-08-17T22:33:48.226Z,18.47
2022-08-17T22:36:29.225Z,18.60
2022-08-17T22:38:59.879Z,18.60
2022-08-17T22:41:44.536Z,18.62
2022-08-17T22:44:25.197Z,18.51
2022-08-17T22:46:58.779Z,18.45
2022-08-17T22:49:32.457Z,18.47
2022-08-17T22:52:03.397Z,18.11
2022-08-17T22:54:49.635Z,18.22
2022-08-17T22:57:36.637Z,18.35
2022-08-17T23:00:06.873Z,18.19
2022-08-17T23:02:36.659Z,18.04
2022-08-17T23:05:22.857Z,18.13
2022-08-17T23:07:53.676Z,18.13
2022-08-17T23:10:21.678Z,18.10
2022-08-17T23:12:49.599Z,18.06
2022-08-17T23:15:19.827Z,17.85
2022-08-17T23:17:49.281Z,17.94
2022-08-17T23:20:17.946Z,17.75
2022-08-17T23:22:52.145Z,17.84
2022-08-17T23:25:28.286Z,17.84
2022-08-17T23:27:57.444Z,17.61
2022-08-17T23:30:28.457Z,17.78
2022-08-17T23:33:01.346Z,17.63
2022-08-17T23:35:39.241Z,17.76
2022-08-17T23:38:09.865Z,17.53
2022-08-17T23:40:39.560Z,17.38
2022-08-17T23:43:24.825Z,17.47
2022-08-17T23:45:57.639Z,17.40
2022-08-17T23:48:35.227Z,17.51
2022-08-17T23:51:08.826Z,17.50
2022-08-17T23:53:42.575Z,17.44
2022-08-17T23:56:11.812Z,17.45
2022-08-17T23:58:42.111Z,17.40
